»·PEaware :: N5312S KSLE-KPDX

N5312S :: KSLE-KPDX

FLIGHT INFORMATION

Flight Status: Arrived
Operator: Privately registered:
United States
More flights under this callsign
Pilot: Nicholas D. (22687)
Aircraft: CESSNA 172 SKYHAWK
(C172)
More flights by this aircraft type
Origin: KSLE McNary
United States
Destination: KPDX Portland Intl
United States
More flights between these airports :: More routes between these airports
Route: +BREAF V495 UBG
File this flight plan on PilotEdge
Remarks:
Altitude:
(Current/Filed)
6,000ft
Speed:
(Current/Filed)
110kts
Departed: 01-Jul-19 05:30 PM
Arrived: 01-Jul-19 06:10 PM
Distance/Time
Traveled:
44nm/0:40
Distance/Time
To Go:
Arrived

Flight Plot

Page will automatically refresh every two minutes.

Flight plan parsing failed; only flown route is shown


Map Options




Map Legend


Flown Route
Filed Route
Departure Airport
Arrival Airport
Navaid (VOR, NDB)
Fix

Horizontal Profiles

Position Reports

Time Latitude Longitude Heading Altitude Ground
Speed
01-Jul-19 17:13 44.904546 -123.007143 2 217ft 0kts
01-Jul-19 17:14 44.904549 -123.007143 2 217ft 0kts
01-Jul-19 17:15 44.904553 -123.007142 2 217ft 0kts
01-Jul-19 17:16 44.904556 -123.007142 2 217ft 0kts
01-Jul-19 17:17 44.904560 -123.007142 2 217ft 0kts
01-Jul-19 17:18 44.904564 -123.007142 2 217ft 0kts
01-Jul-19 17:19 44.904567 -123.007142 2 217ft 0kts
01-Jul-19 17:20 44.904570 -123.007141 2 217ft 0kts
01-Jul-19 17:21 44.904574 -123.007141 2 217ft 0kts
01-Jul-19 17:22 44.904577 -123.007141 2 217ft 0kts
01-Jul-19 17:23 44.904581 -123.007141 2 217ft 0kts
01-Jul-19 17:24 44.904584 -123.007141 2 217ft 0kts
01-Jul-19 17:25 44.904645 -123.006211 117 217ft 15kts
01-Jul-19 17:26 44.902427 -123.002070 82 217ft 19kts
01-Jul-19 17:27 44.903157 -122.997346 77 217ft 0kts
01-Jul-19 17:28 44.903157 -122.997342 77 217ft 0kts
01-Jul-19 17:29 44.908217 -123.000123 330 254ft 75kts
01-Jul-19 17:30 44.929222 -123.010527 334 1032ft 81kts
01-Jul-19 17:31 44.948061 -123.025942 329 1829ft 78kts
01-Jul-19 17:32 44.967043 -123.039882 325 2579ft 75kts
01-Jul-19 17:33 44.985017 -123.055516 325 3266ft 76kts
01-Jul-19 17:34 45.001427 -123.073561 319 3934ft 75kts
01-Jul-19 17:35 45.020058 -123.088846 323 4557ft 76kts
01-Jul-19 17:36 45.041346 -123.092912 7 5156ft 82kts
01-Jul-19 17:37 45.063560 -123.086075 4 5733ft 80kts
01-Jul-19 17:38 45.085649 -123.077214 6 6264ft 83kts
01-Jul-19 17:39 45.107965 -123.066932 9 6775ft 85kts
01-Jul-19 17:40 45.133555 -123.057328 7 6932ft 113kts
01-Jul-19 17:41 45.163164 -123.044063 14 6946ft 107kts
01-Jul-19 17:42 45.192229 -123.038575 9 6919ft 107kts
01-Jul-19 17:43 45.208540 -123.002463 61 6913ft 114kts
01-Jul-19 17:44 45.220821 -122.961637 62 6977ft 110kts
01-Jul-19 17:45 45.233228 -122.922040 63 7045ft 110kts
01-Jul-19 17:46 45.245950 -122.881537 67 7061ft 113kts
01-Jul-19 17:47 45.255872 -122.839107 63 7088ft 113kts
01-Jul-19 17:48 45.270276 -122.798858 63 6958ft 121kts
01-Jul-19 17:49 45.279376 -122.752360 76 6335ft 122kts
01-Jul-19 17:50 45.290355 -122.706896 65 5753ft 121kts
01-Jul-19 17:51 45.303076 -122.663410 57 5224ft 117kts
01-Jul-19 17:52 45.316492 -122.621087 68 4712ft 117kts
01-Jul-19 17:53 45.328150 -122.578359 70 4009ft 114kts
01-Jul-19 17:54 45.343504 -122.539385 56 3237ft 111kts
01-Jul-19 17:55 45.360642 -122.504807 54 3031ft 108kts
01-Jul-19 17:56 45.377177 -122.470353 51 3028ft 103kts
01-Jul-19 17:57 45.393504 -122.435773 55 3101ft 110kts
01-Jul-19 17:58 45.415966 -122.409017 37 2986ft 102kts
01-Jul-19 18:00 45.436992 -122.385894 35 2976ft 90kts
01-Jul-19 18:01 45.459454 -122.366014 14 2984ft 96kts
01-Jul-19 18:02 45.484510 -122.355288 339 3035ft 89kts
01-Jul-19 18:03 45.506164 -122.374512 320 3021ft 92kts
01-Jul-19 18:04 45.520679 -122.403756 297 2696ft 90kts
01-Jul-19 18:05 45.532492 -122.435281 297 2172ft 90kts
01-Jul-19 18:06 45.544695 -122.464507 293 1684ft 81kts
01-Jul-19 18:07 45.556209 -122.496068 296 1194ft 89kts
01-Jul-19 18:08 45.567661 -122.526077 293 701ft 82kts
01-Jul-19 18:09 45.578430 -122.553639 297 319ft 77kts
01-Jul-19 18:10 45.586087 -122.573233 297 33ft 26kts
01-Jul-19 18:11 45.585967 -122.578175 212 33ft 16kts

Navigation Log

Ident Type
Flight plan parsing failed, navigation log unavailable